首页
METAR-TAF:

METAR-TAF

机场 :

孔戈尼亚斯/圣保罗机场

聖保羅, 圣保罗州, 巴西

纬度: 23-37S, 经度: 046-39W, 海拔: 803米

当前天气观测

该预报发布于7分钟前的21:00 UTC
风速11节,风向
温度 22°C
湿度 78%
气压 1019 hPa
能见度10公里或以上
少量云层高于1100英尺

METAR: SBSP 282100Z 17011KT 9999 FEW011 22/18 Q1019

时间: 18:07 (21:07 UTC)

预报

该预报发布于4小时和33分钟前的16:34 UTC
预报有效从28日的 18点(UTC)到 29日的 06点(UTC)
风速8节,风向南转南东
能见度10公里或以上
散云层高于4000英尺
成为
从 28日的 18点(UTC)到 28日的 20点(UTC)
少量云层高于1500英尺
成为
从 28日的 21点(UTC)到 28日的 23点(UTC)
风速5节,风向东南
能见度10公里或以上
多云层高于1500英尺
成为
从 29日的 02点(UTC)到 29日的 04点(UTC)
少量云层高于1200英尺

TAF: SBSP 281634Z 2818/2906 16008KT 9999 SCT040 TX29/2818Z TN18/2905Z BECMG 2818/2820 FEW015 BECMG 2821/2823 13005KT 9999 BKN015 BECMG 2902/2904 FEW012 RMK PGO

超过4000个机场的气象观测和天气预报(METAR&TAF报告)。

可查询的气象台以黄色和红色小点在地图上表示。

将鼠标移到小点上方,可查看气象台名称。

然后点击查看天气观测和预报。

如需切换地图:点击带黑十字的绿色按钮放大地图;点击带横线的绿色按钮缩小地图;或者点击绿色箭头查看邻近地区的地图。


METAR-TAF: